Time;durP1;ratioP1;P1;durP2;ratioP2;P2;SDS_P1;SDS_P2;PMS_P1;PMS_P2;Temp;Humidity;BMP_temperature;BMP_pressure;BME280_temperature;BME280_humidity;BME280_pressure;Samples;Min_cycle;Max_cycle;Signal;HPM_P1;HPM_P2
2022/08/06 00:02:14;;;;;;;5.60;2.83;;;11.80;99.90;;;;;;5013095;28;20961;-84
2022/08/06 00:04:39;;;;;;;6.60;2.58;;;11.80;99.90;;;;;;5026337;28;20107;-84
2022/08/06 00:07:05;;;;;;;5.25;2.75;;;11.80;99.90;;;;;;5039824;28;20044;-85
2022/08/06 00:09:32;;;;;;;3.92;2.60;;;11.80;99.90;;;;;;5011659;28;20534;-85
2022/08/06 00:12:02;;;;;;;3.67;2.53;;;11.80;99.90;;;;;;5010847;28;20037;-84
2022/08/06 00:14:29;;;;;;;4.78;2.92;;;11.70;99.90;;;;;;5027318;28;20120;-85
2022/08/06 00:16:56;;;;;;;6.25;2.75;;;11.70;99.90;;;;;;5027717;28;20461;-84
2022/08/06 00:19:22;;;;;;;7.72;2.70;;;11.70;99.90;;;;;;5013062;28;20120;-84
2022/08/06 00:21:48;;;;;;;4.80;3.20;;;11.70;99.90;;;;;;5038590;28;20048;-84
2022/08/06 00:24:14;;;;;;;3.20;2.20;;;11.50;99.90;;;;;;5010288;28;20036;-84
2022/08/06 00:26:40;;;;;;;5.10;2.80;;;11.40;99.90;;;;;;5040384;28;20566;-84
2022/08/06 00:29:07;;;;;;;4.13;2.80;;;11.30;99.90;;;;;;5043685;28;20049;-84
2022/08/06 00:31:33;;;;;;;6.90;2.70;;;11.30;99.90;;;;;;5027446;28;20091;-84
2022/08/06 00:34:03;;;;;;;6.30;3.15;;;11.30;99.90;;;;;;5013705;28;20523;-84
2022/08/06 00:36:34;;;;;;;3.20;2.50;;;11.30;99.90;;;;;;5027874;28;20140;-84
2022/08/06 00:39:05;;;;;;;4.93;2.90;;;11.20;99.90;;;;;;5051201;28;20045;-84
2022/08/06 00:41:31;;;;;;;7.55;2.88;;;11.10;99.90;;;;;;5006312;28;20048;-84
2022/08/06 00:43:58;;;;;;;3.95;2.97;;;11.00;99.90;;;;;;5031583;28;20040;-84
2022/08/06 00:46:25;;;;;;;6.05;3.00;;;11.00;99.90;;;;;;5024079;28;20446;-85
2022/08/06 00:48:51;;;;;;;4.55;3.20;;;11.00;99.90;;;;;;5015320;28;20040;-84
2022/08/06 00:51:17;;;;;;;3.92;3.03;;;11.10;99.90;;;;;;5042984;28;20466;-84
2022/08/06 00:53:43;;;;;;;4.85;3.42;;;11.00;99.90;;;;;;5011974;28;20107;-84
2022/08/06 00:56:09;;;;;;;6.65;3.60;;;11.00;1.00;;;;;;5024088;28;20049;-84
2022/08/06 00:58:35;;;;;;;6.90;3.80;;;11.00;1.00;;;;;;5017215;28;20198;-85
2022/08/06 01:01:13;;;;;;;7.03;3.67;;;11.10;1.00;;;;;;5037925;28;20040;-84
2022/08/06 01:03:38;;;;;;;8.52;3.63;;;11.10;1.00;;;;;;5053118;28;20155;-84
2022/08/06 01:06:04;;;;;;;4.70;2.70;;;10.90;99.90;;;;;;5011676;28;20041;-83
2022/08/06 01:08:30;;;;;;;5.90;2.92;;;10.70;99.90;;;;;;5010944;28;20397;-84
2022/08/06 01:10:59;;;;;;;3.97;2.80;;;10.50;99.90;;;;;;5025135;28;20125;-84
2022/08/06 01:13:25;;;;;;;5.95;3.63;;;10.70;1.00;;;;;;5028730;28;20084;-84
2022/08/06 01:16:15;;;;;;;5.75;3.50;;;10.80;1.00;;;;;;5045560;28;20479;-84
2022/08/06 01:18:50;;;;;;;6.25;3.60;;;10.80;1.00;;;;;;5054381;28;20128;-84
2022/08/06 01:21:41;;;;;;;5.93;3.28;;;10.80;1.90;;;;;;5008050;28;20064;-83
2022/08/06 01:24:30;;;;;;;6.05;3.30;;;10.80;1.00;;;;;;5050259;28;20043;-83
2022/08/06 01:27:24;;;;;;;6.38;3.53;;;10.70;1.00;;;;;;5062697;28;20040;-83
2022/08/06 01:29:56;;;;;;;4.90;3.17;;;10.80;37.30;;;;;;5051084;28;20612;-84
2022/08/06 01:32:30;;;;;;;6.18;3.15;;;10.80;38.90;;;;;;5027151;28;20281;-83
2022/08/06 01:35:05;;;;;;;6.70;3.35;;;10.80;1.00;;;;;;5011773;28;20206;-84
2022/08/06 01:37:55;;;;;;;5.15;3.30;;;10.80;81.30;;;;;;5010034;28;20151;-83
2022/08/06 01:40:25;;;;;;;6.88;3.20;;;10.80;10.70;;;;;;5012950;28;20200;-83
2022/08/06 01:42:54;;;;;;;5.88;3.65;;;10.80;95.10;;;;;;5026684;28;20094;-84
2022/08/06 01:45:27;;;;;;;4.50;3.20;;;10.80;85.20;;;;;;5025969;28;20075;-83
2022/08/06 01:48:03;;;;;;;4.20;3.38;;;10.80;99.90;;;;;;5033501;28;20065;-83
2022/08/06 01:50:35;;;;;;;5.80;3.38;;;10.80;57.80;;;;;;5049452;28;20053;-83
2022/08/06 01:53:03;;;;;;;7.55;3.30;;;10.90;99.90;;;;;;5029795;28;20124;-83
2022/08/06 01:55:35;;;;;;;7.50;3.70;;;10.90;94.40;;;;;;5033344;28;20067;-83
2022/08/06 01:58:03;;;;;;;3.58;2.97;;;10.90;96.80;;;;;;5006539;28;20162;-83
2022/08/06 02:00:32;;;;;;;5.07;3.20;;;10.80;72.60;;;;;;5011718;28;20098;-83
2022/08/06 02:03:13;;;;;;;4.22;3.33;;;10.80;38.80;;;;;;5010546;28;20084;-83
2022/08/06 02:05:41;;;;;;;3.50;2.92;;;10.80;1.00;;;;;;5025758;28;20053;-83
2022/08/06 02:08:11;;;;;;;6.80;3.50;;;10.70;1.00;;;;;;5010456;28;20218;-83
2022/08/06 02:10:38;;;;;;;5.78;3.50;;;10.80;1.00;;;;;;5008865;28;20132;-83
2022/08/06 02:13:05;;;;;;;5.65;3.17;;;10.70;1.00;;;;;;5027863;28;20472;-82
2022/08/06 02:15:34;;;;;;;3.40;2.72;;;10.70;1.00;;;;;;5009169;28;20134;-83
2022/08/06 02:18:04;;;;;;;6.25;3.00;;;10.60;1.00;;;;;;5028546;28;20054;-83
2022/08/06 02:20:37;;;;;;;5.32;2.80;;;10.40;1.00;;;;;;5009160;28;20038;-83
2022/08/06 02:23:06;;;;;;;3.42;2.88;;;10.40;1.00;;;;;;5036081;28;20349;-83
2022/08/06 02:25:33;;;;;;;6.30;2.60;;;10.40;1.00;;;;;;5009839;28;20036;-83
2022/08/06 02:28:03;;;;;;;6.82;2.90;;;10.40;1.00;;;;;;5027729;28;20108;-83
2022/08/06 02:30:35;;;;;;;3.03;2.70;;;10.40;1.00;;;;;;5027540;28;20052;-83
2022/08/06 02:33:01;;;;;;;4.00;2.90;;;10.30;1.00;;;;;;5034017;28;20468;-83
2022/08/06 02:35:32;;;;;;;6.20;2.65;;;10.30;1.00;;;;;;5027277;28;20064;-83
2022/08/06 02:38:03;;;;;;;3.67;2.80;;;10.20;1.00;;;;;;5045795;28;20385;-83
2022/08/06 02:40:40;;;;;;;4.50;2.80;;;10.10;1.00;;;;;;5022369;28;20045;-83
2022/08/06 02:43:20;;;;;;;5.82;2.65;;;10.10;1.00;;;;;;5009635;28;20083;-83
2022/08/06 02:46:00;;;;;;;3.88;2.65;;;10.10;1.00;;;;;;5027067;28;20072;-83
2022/08/06 02:49:14;;;;;;;3.28;2.58;;;10.10;1.00;;;;;;5042058;28;20465;-83
2022/08/06 02:51:47;;;;;;;4.78;2.40;;;10.10;1.00;;;;;;5023760;28;20117;-83
2022/08/06 02:54:22;;;;;;;3.72;2.47;;;10.10;1.00;;;;;;5027323;28;20087;-83
2022/08/06 02:56:51;;;;;;;3.92;2.85;;;10.00;1.00;;;;;;5034055;28;20041;-82
2022/08/06 02:59:35;;;;;;;7.30;3.08;;;10.00;1.00;;;;;;5012081;28;20057;-82
2022/08/06 03:02:06;;;;;;;4.60;3.20;;;9.90;1.00;;;;;;5020914;28;20045;-82
2022/08/06 03:04:36;;;;;;;5.03;3.00;;;10.00;1.00;;;;;;5043495;28;20025;-83
2022/08/06 03:07:08;;;;;;;6.20;3.08;;;10.00;1.00;;;;;;5036109;28;20099;-83
2022/08/06 03:09:36;;;;;;;4.88;2.90;;;9.90;1.00;;;;;;5027215;28;20044;-83
2022/08/06 03:12:03;;;;;;;5.05;3.33;;;9.90;1.00;;;;;;5032100;28;20060;-83
2022/08/06 03:14:30;;;;;;;4.60;3.50;;;9.80;1.00;;;;;;5032736;28;20091;-83
2022/08/06 03:16:57;;;;;;;7.25;2.78;;;9.80;1.00;;;;;;5051345;28;20041;-82
2022/08/06 03:19:26;;;;;;;4.93;3.10;;;9.80;1.00;;;;;;5022927;28;20122;-82
2022/08/06 03:21:53;;;;;;;4.70;2.92;;;9.70;1.00;;;;;;5023301;28;20179;-83
2022/08/06 03:24:20;;;;;;;5.40;3.17;;;9.80;1.00;;;;;;5007175;28;20170;-82
2022/08/06 03:26:48;;;;;;;3.88;3.00;;;9.70;1.00;;;;;;5006026;28;20048;-83
2022/08/06 03:29:14;;;;;;;7.05;3.28;;;9.70;1.00;;;;;;5010951;28;20124;-83
2022/08/06 03:31:41;;;;;;;4.22;3.15;;;9.70;1.00;;;;;;5007285;28;20100;-83
2022/08/06 03:34:07;;;;;;;3.80;3.03;;;9.70;1.00;;;;;;5026415;28;20392;-83
2022/08/06 03:36:35;;;;;;;6.65;3.85;;;9.60;18.60;;;;;;5020444;28;20532;-83
2022/08/06 03:39:05;;;;;;;4.40;3.13;;;9.60;55.90;;;;;;5011611;28;20724;-83
2022/08/06 03:41:34;;;;;;;3.30;3.00;;;9.60;24.60;;;;;;5024898;28;20033;-83
2022/08/06 03:44:04;;;;;;;4.40;2.97;;;9.60;18.30;;;;;;5028915;28;20481;-83
2022/08/06 03:46:39;;;;;;;4.85;3.10;;;9.50;1.00;;;;;;5024233;28;20060;-83
2022/08/06 03:49:06;;;;;;;;;;;9.50;1.00;;;;;;5019946;28;20029;-83
2022/08/06 03:51:34;;;;;;;4.45;3.20;;;9.60;1.00;;;;;;5006092;28;20391;-83
2022/08/06 03:54:01;;;;;;;6.18;3.67;;;9.50;1.00;;;;;;5008282;28;20042;-83
2022/08/06 03:56:28;;;;;;;5.15;3.83;;;9.50;11.90;;;;;;5002616;28;20036;-83
2022/08/06 03:58:59;;;;;;;5.40;4.10;;;9.50;54.50;;;;;;5007492;28;20043;-83
2022/08/06 04:01:27;;;;;;;6.50;4.60;;;9.50;99.40;;;;;;5031555;28;20048;-83
2022/08/06 04:03:54;;;;;;;5.20;4.25;;;9.50;99.90;;;;;;5015390;28;20044;-83
2022/08/06 04:06:23;;;;;;;7.15;4.35;;;9.60;99.90;;;;;;5011619;28;20037;-83
2022/08/06 04:08:49;;;;;;;6.63;4.80;;;9.60;99.90;;;;;;5013840;28;20029;-83
2022/08/06 04:11:17;;;;;;;5.35;4.47;;;9.50;99.90;;;;;;5011495;28;20086;-83
2022/08/06 04:13:44;;;;;;;7.85;4.57;;;9.60;99.90;;;;;;5013403;28;20053;-83
2022/08/06 04:16:14;;;;;;;7.07;4.28;;;9.60;99.90;;;;;;5055152;28;20045;-83
2022/08/06 04:18:41;;;;;;;7.28;4.45;;;9.60;99.90;;;;;;5042772;28;20596;-83
2022/08/06 04:21:14;;;;;;;5.95;4.00;;;9.60;99.90;;;;;;5053845;28;20388;-83
2022/08/06 04:23:40;;;;;;;5.68;4.20;;;9.60;99.90;;;;;;5032003;28;20140;-83
2022/08/06 04:26:08;;;;;;;16.35;4.75;;;9.70;99.90;;;;;;5033911;28;20037;-83
2022/08/06 04:28:39;;;;;;;7.70;4.10;;;9.70;93.20;;;;;;5014454;28;20072;-83
2022/08/06 04:31:08;;;;;;;8.38;4.30;;;9.60;70.90;;;;;;5039451;28;20045;-83
2022/08/06 04:33:38;;;;;;;7.22;4.22;;;9.70;34.60;;;;;;5046805;28;20037;-82
2022/08/06 04:36:05;;;;;;;4.72;4.03;;;9.80;75.10;;;;;;5028850;28;20038;-83
2022/08/06 04:38:32;;;;;;;8.75;4.38;;;9.90;93.10;;;;;;5057099;28;20486;-82
2022/08/06 04:40:59;;;;;;;5.70;3.78;;;10.00;99.90;;;;;;5035587;28;20040;-83
2022/08/06 04:43:25;;;;;;;5.03;4.10;;;10.00;94.30;;;;;;5054498;28;20453;-83
2022/08/06 04:45:54;;;;;;;6.85;4.35;;;10.10;99.90;;;;;;5012959;28;20129;-83
2022/08/06 04:48:21;;;;;;;5.18;4.43;;;10.10;99.90;;;;;;5044461;28;20090;-83
2022/08/06 04:50:47;;;;;;;6.85;4.20;;;10.20;99.90;;;;;;5012813;28;20148;-83
2022/08/06 04:53:16;;;;;;;10.07;4.10;;;10.30;97.00;;;;;;5013797;28;20045;-83
2022/08/06 04:55:43;;;;;;;5.72;4.40;;;10.30;83.50;;;;;;5007795;28;20053;-83
2022/08/06 04:58:15;;;;;;;6.38;4.22;;;10.40;99.90;;;;;;5053501;28;20421;-83
2022/08/06 05:00:43;;;;;;;5.47;4.32;;;10.40;99.90;;;;;;5015482;28;20129;-83
2022/08/06 05:03:08;;;;;;;5.20;3.88;;;10.50;79.30;;;;;;5036651;28;20038;-83
2022/08/06 05:05:41;;;;;;;5.28;3.90;;;10.50;68.70;;;;;;5027688;28;20102;-82
2022/08/06 05:08:09;;;;;;;6.20;3.88;;;10.60;49.10;;;;;;5027260;28;20110;-83
2022/08/06 05:10:46;;;;;;;6.80;4.00;;;10.60;47.90;;;;;;5027626;28;20075;-83
2022/08/06 05:13:14;;;;;;;4.38;3.80;;;10.70;41.20;;;;;;5055313;28;20045;-83
2022/08/06 05:15:48;;;;;;;12.65;4.00;;;10.70;51.70;;;;;;5040082;28;20477;-83
2022/08/06 05:18:20;;;;;;;4.10;3.70;;;10.70;20.10;;;;;;5031311;28;20099;-83
2022/08/06 05:20:49;;;;;;;4.60;3.70;;;10.80;1.00;;;;;;5021485;28;20046;-83
2022/08/06 05:23:29;;;;;;;4.80;3.40;;;10.80;1.00;;;;;;5029800;28;20049;-83
2022/08/06 05:25:54;;;;;;;4.72;3.92;;;10.90;1.00;;;;;;5042228;28;20043;-83
2022/08/06 05:28:20;;;;;;;4.97;3.72;;;11.00;1.00;;;;;;5054475;28;20037;-83
2022/08/06 05:30:50;;;;;;;5.15;3.80;;;11.00;1.00;;;;;;5029175;28;20037;-83
2022/08/06 05:33:31;;;;;;;6.88;3.60;;;11.10;1.00;;;;;;5038412;28;20100;-83
2022/08/06 05:36:11;;;;;;;7.38;4.05;;;11.10;1.00;;;;;;5026693;28;20045;-83
2022/08/06 05:38:39;;;;;;;5.18;3.70;;;11.10;1.00;;;;;;5035589;28;20167;-82
2022/08/06 05:41:08;;;;;;;5.10;3.60;;;11.30;1.00;;;;;;5023612;28;20542;-83
2022/08/06 05:43:35;;;;;;;4.35;3.53;;;11.40;1.00;;;;;;5010630;28;20037;-83
2022/08/06 05:46:11;;;;;;;6.18;3.70;;;11.60;99.90;;;;;;5009589;28;20107;-82
2022/08/06 05:48:41;;;;;;;3.60;3.30;;;11.70;99.90;;;;;;5051368;28;20125;-83
2022/08/06 05:51:12;;;;;;;4.57;3.33;;;11.80;99.90;;;;;;5028817;28;20065;-82
2022/08/06 05:53:46;;;;;;;5.95;3.35;;;12.00;99.90;;;;;;5042060;28;20041;-83
2022/08/06 05:56:18;;;;;;;5.43;3.47;;;12.20;99.90;;;;;;5033245;28;20302;-82
2022/08/06 05:58:56;;;;;;;6.28;3.40;;;12.30;99.90;;;;;;5035175;28;20099;-82
2022/08/06 06:01:23;;;;;;;5.53;3.28;;;12.60;99.90;;;;;;5046826;28;20164;-83
2022/08/06 06:03:53;;;;;;;4.43;3.45;;;12.70;99.90;;;;;;5037772;28;20040;-83
2022/08/06 06:06:20;;;;;;;3.90;2.92;;;12.90;99.90;;;;;;5052171;28;20059;-83
2022/08/06 06:08:46;;;;;;;3.88;3.00;;;13.00;99.90;;;;;;5038341;28;20037;-83
2022/08/06 06:11:16;;;;;;;3.65;2.88;;;13.20;99.90;;;;;;5010377;28;20040;-83
2022/08/06 06:13:43;;;;;;;4.72;2.70;;;13.40;99.90;;;;;;5029976;28;20090;-83
2022/08/06 06:16:17;;;;;;;3.67;2.67;;;13.50;99.90;;;;;;5025001;28;20478;-82
2022/08/06 06:19:10;;;;;;;4.00;2.83;;;13.60;99.90;;;;;;5054742;28;20056;-83
2022/08/06 06:21:56;;;;;;;4.43;2.90;;;13.80;99.90;;;;;;5008899;28;20072;-83
2022/08/06 06:24:54;;;;;;;2.63;2.42;;;13.80;99.90;;;;;;5028764;28;20425;-83
2022/08/06 06:27:29;;;;;;;4.00;2.40;;;13.90;99.90;;;;;;5022156;28;20233;-83
2022/08/06 06:30:00;;;;;;;;;;;14.10;99.90;;;;;;5029119;28;20206;-83
2022/08/06 06:32:57;;;;;;;4.57;2.55;;;14.30;99.90;;;;;;5056328;28;19921;-83
2022/08/06 06:36:03;;;;;;;3.35;2.30;;;14.50;99.90;;;;;;5054093;28;20121;-83
2022/08/06 06:38:44;;;;;;;2.55;2.22;;;14.70;99.90;;;;;;4993608;28;20044;-83
2022/08/06 06:41:13;;;;;;;3.95;1.95;;;14.80;99.90;;;;;;4992686;28;20045;-83
2022/08/06 06:44:18;;;;;;;3.08;1.92;;;14.90;60.70;;;;;;4996457;28;20183;-82
2022/08/06 06:47:10;;;;;;;7.28;2.10;;;15.10;99.90;;;;;;5034439;28;20748;-83
2022/08/06 06:49:56;;;;;;;6.32;1.90;;;15.20;82.00;;;;;;5066273;28;20159;-83
2022/08/06 06:52:26;;;;;;;2.80;1.65;;;15.50;58.90;;;;;;5037999;28;20132;-83
2022/08/06 06:55:08;;;;;;;2.92;1.77;;;15.60;90.70;;;;;;5062487;28;20045;-83
2022/08/06 06:57:38;;;;;;;2.92;1.52;;;15.80;39.20;;;;;;5007966;28;20515;-84
2022/08/06 07:00:06;;;;;;;2.00;1.30;;;15.90;99.90;;;;;;5009498;28;20037;-84
2022/08/06 07:02:39;;;;;;;2.88;1.63;;;16.00;99.90;;;;;;5052439;28;20050;-83
2022/08/06 07:05:06;;;;;;;1.90;1.10;;;16.10;99.90;;;;;;5023234;28;20037;-84
2022/08/06 07:07:34;;;;;;;2.10;1.30;;;16.10;99.90;;;;;;5024435;28;20453;-83
2022/08/06 07:10:04;;;;;;;3.22;1.10;;;16.30;99.90;;;;;;5021054;28;20205;-84
2022/08/06 07:12:34;;;;;;;2.45;1.13;;;16.40;99.90;;;;;;5053129;28;20076;-83
2022/08/06 07:15:04;;;;;;;4.78;1.02;;;16.60;99.90;;;;;;5032279;28;20044;-84
2022/08/06 07:17:32;;;;;;;1.92;1.13;;;16.60;99.90;;;;;;5037412;28;20079;-84
2022/08/06 07:20:01;;;;;;;4.20;0.90;;;16.70;99.90;;;;;;5040179;28;20048;-84
2022/08/06 07:22:28;;;;;;;4.47;0.95;;;16.70;79.70;;;;;;5030862;28;20070;-83
2022/08/06 07:24:59;;;;;;;4.07;1.23;;;16.90;99.90;;;;;;5026240;28;20116;-83
2022/08/06 07:27:37;;;;;;;6.00;1.33;;;16.90;1.00;;;;;;5022915;28;20111;-84
2022/08/06 07:30:05;;;;;;;2.85;1.00;;;17.10;99.90;;;;;;5027016;28;20038;-84
2022/08/06 07:32:35;;;;;;;1.17;0.70;;;17.00;99.10;;;;;;5055399;28;20462;-84
2022/08/06 07:35:04;;;;;;;6.00;1.13;;;17.10;1.00;;;;;;5051862;28;20055;-84
2022/08/06 07:37:31;;;;;;;1.63;0.88;;;17.30;40.70;;;;;;5049004;28;20045;-83
2022/08/06 07:40:04;;;;;;;2.33;0.95;;;17.30;99.90;;;;;;5015331;28;20396;-85
2022/08/06 07:42:30;;;;;;;3.17;0.88;;;17.30;1.00;;;;;;5054559;28;20045;-84
2022/08/06 07:45:01;;;;;;;3.15;0.57;;;17.50;1.00;;;;;;5013502;28;20041;-84
2022/08/06 07:47:39;;;;;;;1.85;0.75;;;17.50;99.90;;;;;;5028580;28;20400;-83
2022/08/06 07:50:09;;;;;;;3.25;0.70;;;17.70;99.90;;;;;;5009168;28;20060;-83
2022/08/06 07:52:36;;;;;;;6.13;1.08;;;17.90;1.00;;;;;;5014222;28;20377;-84
2022/08/06 07:55:02;;;;;;;4.13;0.77;;;18.10;99.90;;;;;;5048764;28;20104;-84
2022/08/06 07:57:30;;;;;;;2.78;0.70;;;18.00;99.90;;;;;;5045761;28;20655;-84
2022/08/06 07:59:55;;;;;;;3.80;0.85;;;17.80;99.90;;;;;;5057196;28;20033;-84
2022/08/06 08:02:23;;;;;;;1.20;0.70;;;18.20;99.90;;;;;;5030115;28;20558;-83
2022/08/06 08:07:34;;;;;;;4.47;1.05;;;18.50;99.90;;;;;;5054322;28;20034;-84
2022/08/06 08:10:00;;;;;;;2.92;0.77;;;18.70;99.90;;;;;;5039642;28;20032;-84
2022/08/06 08:12:27;;;;;;;3.88;1.20;;;18.70;99.90;;;;;;5009024;28;20485;-84
2022/08/06 08:14:53;;;;;;;3.53;0.75;;;18.70;87.60;;;;;;5065570;28;20068;-86
2022/08/06 08:17:21;;;;;;;2.13;0.93;;;18.70;99.90;;;;;;5010761;28;20064;-84
2022/08/06 08:19:47;;;;;;;3.35;0.80;;;18.80;99.90;;;;;;5013716;28;20559;-84
2022/08/06 08:22:16;;;;;;;2.80;0.88;;;18.80;99.90;;;;;;5036987;28;20048;-84
2022/08/06 08:24:44;;;;;;;4.25;1.00;;;18.40;78.00;;;;;;5027398;28;20060;-84
2022/08/06 08:27:10;;;;;;;2.05;0.70;;;18.40;99.90;;;;;;5027082;28;20176;-84
2022/08/06 08:29:41;;;;;;;3.05;0.77;;;18.30;99.90;;;;;;5016185;28;20044;-84
2022/08/06 08:32:08;;;;;;;1.70;0.90;;;18.20;99.90;;;;;;5056329;28;20220;-84
2022/08/06 08:34:35;;;;;;;2.15;0.93;;;18.20;99.90;;;;;;5014953;28;20111;-84
2022/08/06 08:37:01;;;;;;;3.97;1.60;;;17.90;99.90;;;;;;5052443;28;20033;-84
2022/08/06 08:39:28;;;;;;;4.60;2.00;;;17.80;99.90;;;;;;5034851;28;20106;-84
2022/08/06 08:42:00;;;;;;;3.08;1.60;;;17.80;99.90;;;;;;5038680;28;20128;-84
2022/08/06 08:44:27;;;;;;;3.42;1.85;;;17.80;99.90;;;;;;5027299;28;20287;-84
2022/08/06 08:46:58;;;;;;;2.88;1.75;;;17.80;99.90;;;;;;5009992;28;20104;-85
2022/08/06 08:49:39;;;;;;;3.97;1.90;;;17.80;99.90;;;;;;5044481;28;20033;-84
2022/08/06 08:52:13;;;;;;;3.35;2.00;;;18.00;99.90;;;;;;5040869;28;20266;-85
2022/08/06 08:54:45;;;;;;;3.47;2.20;;;18.10;99.90;;;;;;5040093;28;20112;-84
2022/08/06 08:57:11;;;;;;;3.80;1.80;;;18.30;99.90;;;;;;5040409;28;20059;-85
2022/08/06 08:59:40;;;;;;;3.35;1.60;;;18.90;99.90;;;;;;5045635;28;20109;-85
2022/08/06 09:02:09;;;;;;;4.22;1.40;;;19.50;23.70;;;;;;5045005;28;20042;-85
2022/08/06 09:04:35;;;;;;;3.53;1.17;;;19.20;1.00;;;;;;5042562;28;20137;-85
2022/08/06 09:07:02;;;;;;;2.95;1.10;;;18.90;1.00;;;;;;5031555;28;20048;-85
2022/08/06 09:09:28;;;;;;;2.85;1.17;;;18.70;1.00;;;;;;5036809;28;20594;-83
2022/08/06 09:11:56;;;;;;;2.70;1.40;;;18.70;1.00;;;;;;5054423;28;20037;-85
2022/08/06 09:14:22;;;;;;;1.52;1.00;;;18.60;1.00;;;;;;5042062;28;20154;-85
2022/08/06 09:16:51;;;;;;;3.67;1.58;;;18.30;1.00;;;;;;5033840;28;20494;-85
2022/08/06 09:19:17;;;;;;;7.97;2.05;;;18.40;1.00;;;;;;5011775;28;20518;-85
2022/08/06 09:21:43;;;;;;;4.43;1.50;;;18.30;1.00;;;;;;5014613;28;20083;-89
2022/08/06 09:24:09;;;;;;;3.53;1.20;;;18.00;4.20;;;;;;5014386;28;20228;-86
2022/08/06 09:26:35;;;;;;;4.13;1.13;;;17.70;99.90;;;;;;5013023;28;20508;-87
2022/08/06 09:29:01;;;;;;;2.63;1.30;;;17.30;99.90;;;;;;5016576;28;20120;-87
2022/08/06 09:31:27;;;;;;;6.18;1.58;;;17.30;1.00;;;;;;5026725;28;20037;-86
2022/08/06 09:34:03;;;;;;;2.80;1.20;;;17.30;1.00;;;;;;5045915;28;20041;-85
2022/08/06 09:36:41;;;;;;;3.05;1.52;;;17.30;90.30;;;;;;5036046;28;20041;-85
2022/08/06 09:39:07;;;;;;;5.00;1.70;;;17.20;99.90;;;;;;5059119;28;20191;-85
2022/08/06 09:41:34;;;;;;;4.78;1.58;;;17.10;99.90;;;;;;5050703;28;20596;-86
2022/08/06 09:44:10;;;;;;;3.97;1.42;;;17.20;99.90;;;;;;5033164;28;20598;-86
2022/08/06 09:46:35;;;;;;;2.83;1.13;;;17.10;99.90;;;;;;5026664;28;20037;-85
2022/08/06 09:49:02;;;;;;;3.40;1.45;;;17.20;99.90;;;;;;5056298;28;20029;-85
2022/08/06 09:51:34;;;;;;;6.43;1.63;;;17.50;99.90;;;;;;5035436;28;20081;-86
2022/08/06 09:54:01;;;;;;;3.65;1.38;;;17.60;1.00;;;;;;5054980;28;20699;-86
2022/08/06 09:56:27;;;;;;;5.95;1.60;;;17.70;1.00;;;;;;5038866;28;20060;-86
2022/08/06 09:59:02;;;;;;;3.05;1.80;;;17.70;1.00;;;;;;5008604;28;20511;-86
2022/08/06 10:01:28;;;;;;;2.63;1.40;;;17.90;1.00;;;;;;5045963;28;21481;-86
2022/08/06 10:03:57;;;;;;;3.08;1.77;;;18.20;1.00;;;;;;5027843;28;20500;-86
2022/08/06 10:06:24;;;;;;;2.95;1.27;;;18.60;99.90;;;;;;5010616;28;20033;-86
2022/08/06 10:09:07;;;;;;;5.40;1.50;;;19.10;99.90;;;;;;5006192;28;20036;-87
2022/08/06 10:11:39;;;;;;;3.42;1.48;;;20.10;99.90;;;;;;5015439;28;20037;-87
2022/08/06 10:14:19;;;;;;;5.00;1.55;;;20.50;99.90;;;;;;5030811;28;20047;-86
2022/08/06 10:17:06;;;;;;;5.93;1.58;;;19.90;1.00;;;;;;5006936;28;20049;-86
2022/08/06 10:19:32;;;;;;;4.18;1.40;;;19.60;1.00;;;;;;5028095;28;20052;-86
2022/08/06 10:22:08;;;;;;;5.00;1.55;;;19.70;1.00;;;;;;5053037;28;20041;-87
2022/08/06 10:24:38;;;;;;;3.72;1.50;;;19.60;1.00;;;;;;5023741;28;20087;-87
2022/08/06 10:27:10;;;;;;;4.90;1.50;;;19.60;1.00;;;;;;5013755;28;20040;-87
2022/08/06 10:29:41;;;;;;;2.28;1.50;;;19.70;1.00;;;;;;5010806;28;20665;-88
2022/08/06 10:32:13;;;;;;;4.75;1.30;;;19.70;1.00;;;;;;5025140;28;20075;-88
2022/08/06 10:34:44;;;;;;;4.18;1.33;;;19.50;1.00;;;;;;5034611;28;20398;-89
2022/08/06 10:37:11;;;;;;;3.20;1.67;;;19.70;1.00;;;;;;5010830;28;20063;-87
2022/08/06 10:39:42;;;;;;;7.05;1.80;;;19.70;1.00;;;;;;5035571;28;20136;-87
2022/08/06 10:42:09;;;;;;;2.50;1.48;;;20.20;1.00;;;;;;5054232;28;20030;-89
2022/08/06 10:44:36;;;;;;;2.70;1.70;;;20.00;1.00;;;;;;5035191;28;20685;-87
2022/08/06 10:47:03;;;;;;;3.38;1.70;;;19.90;1.00;;;;;;5052492;28;20044;-87
2022/08/06 10:49:30;;;;;;;2.13;1.80;;;20.00;1.00;;;;;;5011397;28;20070;-87
2022/08/06 10:51:56;;;;;;;3.42;2.00;;;19.90;99.90;;;;;;5008753;28;20099;-87
2022/08/06 10:54:23;;;;;;;2.63;1.88;;;19.90;99.90;;;;;;5036372;28;20685;-88
2022/08/06 10:56:54;;;;;;;2.90;1.85;;;19.90;99.90;;;;;;5043074;28;20133;-88
2022/08/06 10:59:21;;;;;;;3.58;1.95;;;20.30;99.90;;;;;;5011454;28;20045;-87
2022/08/06 11:02:05;;;;;;;4.78;2.03;;;20.40;99.90;;;;;;5035850;28;20136;-87
2022/08/06 11:04:46;;;;;;;4.78;2.10;;;20.20;99.90;;;;;;5035979;28;20072;-85
2022/08/06 11:07:39;;;;;;;2.95;1.88;;;20.20;99.90;;;;;;5051445;28;20393;-86
2022/08/06 11:10:24;;;;;;;3.65;1.80;;;21.00;99.90;;;;;;5046974;28;20040;-88
2022/08/06 11:13:13;;;;;;;3.88;1.85;;;21.20;99.90;;;;;;5027949;28;20033;-87
2022/08/06 11:15:41;;;;;;;3.65;2.22;;;21.00;99.90;;;;;;5060605;28;20542;-87
2022/08/06 11:18:10;;;;;;;3.95;1.95;;;21.10;99.90;;;;;;5040158;28;20568;-87
2022/08/06 11:20:44;;;;;;;4.38;2.10;;;20.70;99.90;;;;;;5035253;28;20050;-87
2022/08/06 11:23:13;;;;;;;4.17;1.93;;;21.10;99.90;;;;;;5038121;28;20567;-87
2022/08/06 11:25:55;;;;;;;3.05;2.00;;;21.20;99.90;;;;;;5024168;28;20533;-87
2022/08/06 11:28:33;;;;;;;4.05;2.20;;;21.40;99.90;;;;;;5025477;28;20045;-87
2022/08/06 11:31:01;;;;;;;3.33;2.00;;;21.20;99.90;;;;;;5025187;28;20052;-87
2022/08/06 11:33:33;;;;;;;3.42;2.15;;;21.30;99.90;;;;;;5045888;28;20045;-88
2022/08/06 11:36:10;;;;;;;3.63;1.92;;;21.10;99.90;;;;;;5026245;28;20048;-89
2022/08/06 11:38:46;;;;;;;4.35;2.20;;;21.70;99.90;;;;;;5039918;28;20033;-89
2022/08/06 11:41:25;;;;;;;4.78;2.25;;;22.20;99.90;;;;;;5060039;28;20045;-89
2022/08/06 11:43:53;;;;;;;3.63;2.40;;;21.70;99.90;;;;;;5046978;28;20037;-87
2022/08/06 11:46:31;;;;;;;3.63;2.50;;;21.30;99.90;;;;;;5054129;28;20329;-84
2022/08/06 11:48:59;;;;;;;3.85;2.38;;;20.80;99.90;;;;;;5027675;28;20224;-88
2022/08/06 11:51:48;;;;;;;4.15;2.03;;;21.10;99.90;;;;;;5029806;28;20362;-87
2022/08/06 11:54:23;;;;;;;3.35;2.40;;;21.30;99.90;;;;;;5057297;28;20045;-87
2022/08/06 11:57:01;;;;;;;3.80;2.60;;;21.20;99.90;;;;;;5028568;28;20063;-87
2022/08/06 11:59:37;;;;;;;3.05;2.30;;;20.80;99.90;;;;;;5000072;28;20448;-87
2022/08/06 12:02:05;;;;;;;6.40;2.60;;;20.90;99.90;;;;;;5005791;28;20045;-87
2022/08/06 12:04:34;;;;;;;3.20;2.67;;;20.80;99.90;;;;;;5034734;28;20128;-87
2022/08/06 12:07:33;;;;;;;3.75;2.35;;;20.70;99.90;;;;;;5053099;28;20343;-88
2022/08/06 12:10:05;;;;;;;3.50;2.40;;;20.90;99.90;;;;;;5055138;28;20034;-88
2022/08/06 12:12:37;;;;;;;2.85;2.28;;;20.90;99.90;;;;;;5051116;28;20033;-87
2022/08/06 12:15:15;;;;;;;3.13;2.40;;;21.00;99.90;;;;;;5008158;28;20041;-87
2022/08/06 12:18:03;;;;;;;3.08;2.47;;;21.70;99.90;;;;;;5026883;28;20037;-88
2022/08/06 12:20:37;;;;;;;3.95;2.40;;;22.10;99.90;;;;;;5024246;28;20453;-88
2022/08/06 12:23:08;;;;;;;2.78;2.47;;;22.80;99.90;;;;;;5049861;28;20245;-87
2022/08/06 12:25:47;;;;;;;3.58;2.58;;;22.70;99.90;;;;;;5053942;28;20042;-88
2022/08/06 12:28:16;;;;;;;5.88;2.63;;;22.00;99.90;;;;;;5037380;28;20903;-87
2022/08/06 12:30:42;;;;;;;4.38;2.72;;;21.20;99.90;;;;;;5013244;28;20179;-88
2022/08/06 12:33:08;;;;;;;4.15;2.65;;;21.30;99.90;;;;;;5038283;28;20099;-88
2022/08/06 12:35:35;;;;;;;6.22;2.65;;;21.00;99.90;;;;;;5029857;28;20045;-88
2022/08/06 12:38:01;;;;;;;4.63;3.05;;;21.30;99.90;;;;;;5012278;28;20086;-88
2022/08/06 12:40:31;;;;;;;2.78;2.45;;;21.50;99.90;;;;;;5020873;28;20144;-88
2022/08/06 12:43:02;;;;;;;6.03;2.80;;;21.50;99.90;;;;;;5024630;28;20140;-88
2022/08/06 12:45:30;;;;;;;4.38;2.47;;;21.30;99.90;;;;;;5009247;28;20602;-88
2022/08/06 12:48:04;;;;;;;4.20;2.50;;;20.90;99.90;;;;;;5043216;28;20028;-88
2022/08/06 12:50:32;;;;;;;3.40;2.72;;;20.70;99.90;;;;;;5047827;28;20069;-87
2022/08/06 12:53:07;;;;;;;4.25;2.80;;;20.70;99.90;;;;;;5009761;28;20041;-89
2022/08/06 12:55:36;;;;;;;2.90;2.60;;;20.50;99.90;;;;;;5038247;28;20549;-87
2022/08/06 12:58:03;;;;;;;3.95;2.63;;;20.50;99.90;;;;;;5028077;28;20037;-87
2022/08/06 13:00:30;;;;;;;3.00;2.47;;;20.30;99.90;;;;;;5063027;28;20180;-86
2022/08/06 13:02:57;;;;;;;3.22;2.92;;;21.40;99.90;;;;;;5006382;28;20044;-89
2022/08/06 13:05:27;;;;;;;2.95;2.50;;;21.50;99.90;;;;;;5003358;28;20038;-87
2022/08/06 13:08:00;;;;;;;2.70;2.40;;;21.70;99.90;;;;;;5001625;28;20061;-86
2022/08/06 13:10:30;;;;;;;2.75;2.40;;;22.10;99.90;;;;;;5004803;28;20150;-87
2022/08/06 13:12:57;;;;;;;3.15;2.72;;;22.00;99.90;;;;;;5006976;28;20040;-87
2022/08/06 13:15:25;;;;;;;3.00;2.40;;;23.10;99.90;;;;;;5035671;28;20076;-87